createdAt,value
2018-10-02T00:00:07.017Z,1.23
2018-10-02T00:02:36.278Z,0.80
2018-10-02T00:05:05.588Z,1.47
2018-10-02T00:07:35.746Z,1.13
2018-10-02T00:10:05.052Z,1.70
2018-10-02T00:13:40.735Z,1.47
2018-10-02T00:16:10.002Z,1.40
2018-10-02T00:18:39.179Z,1.40
2018-10-02T00:21:08.548Z,1.50
2018-10-02T00:23:38.697Z,2.00
2018-10-02T00:26:08.355Z,1.80
2018-10-02T00:28:37.641Z,1.80
2018-10-02T00:31:07.707Z,1.23
2018-10-02T00:33:36.889Z,1.50
2018-10-02T00:36:08.332Z,1.40
2018-10-02T00:38:38.189Z,1.67
2018-10-02T00:41:07.463Z,1.60
2018-10-02T00:43:36.679Z,2.33
2018-10-02T00:46:05.893Z,1.60
2018-10-02T00:48:35.159Z,2.23
2018-10-02T00:51:07.546Z,1.60
2018-10-02T00:53:36.624Z,1.53
2018-10-02T00:56:05.886Z,1.30
2018-10-02T00:58:35.137Z,1.27
2018-10-02T01:01:05.041Z,1.43
2018-10-02T01:03:34.908Z,1.50
2018-10-02T01:06:04.871Z,1.93
2018-10-02T01:08:34.088Z,1.20
2018-10-02T01:11:03.245Z,2.27
2018-10-02T01:13:32.343Z,1.20
2018-10-02T01:16:01.467Z,1.53
2018-10-02T01:18:30.582Z,1.67
2018-10-02T01:21:00.382Z,1.43
2018-10-02T01:23:30.330Z,1.17
2018-10-02T01:25:59.516Z,1.13
2018-10-02T01:28:28.699Z,1.50
2018-10-02T01:30:57.860Z,1.53
2018-10-02T01:33:27.185Z,1.90
2018-10-02T01:35:56.365Z,2.00
2018-10-02T01:38:25.620Z,1.97
2018-10-02T01:40:54.802Z,2.23
2018-10-02T01:43:24.606Z,2.10
2018-10-02T01:45:53.948Z,1.70
2018-10-02T01:48:23.204Z,1.63
2018-10-02T01:50:52.451Z,1.70
2018-10-02T01:53:21.728Z,1.87
2018-10-02T01:55:50.978Z,1.47
2018-10-02T01:58:20.108Z,1.77
2018-10-02T02:00:49.327Z,3.30
2018-10-02T02:03:18.463Z,2.13
2018-10-02T02:05:47.691Z,1.97
2018-10-02T02:08:16.826Z,2.10
2018-10-02T02:10:46.103Z,1.60
2018-10-02T02:13:15.359Z,2.20
2018-10-02T02:15:44.641Z,2.30
2018-10-02T02:18:13.799Z,1.33
2018-10-02T02:20:43.174Z,1.60
2018-10-02T02:23:12.390Z,1.80
2018-10-02T02:25:42.202Z,1.80
2018-10-02T02:28:11.750Z,2.13
2018-10-02T02:30:40.833Z,1.47
2018-10-02T02:33:09.915Z,1.90
2018-10-02T02:35:39.076Z,2.17
2018-10-02T02:38:08.111Z,1.77
2018-10-02T02:40:37.342Z,2.70
2018-10-02T02:43:06.422Z,1.90
2018-10-02T02:45:35.897Z,1.60
2018-10-02T02:48:15.736Z,1.63
2018-10-02T02:52:03.318Z,2.00
2018-10-02T02:54:32.364Z,2.27
2018-10-02T02:57:01.567Z,1.83
2018-10-02T02:59:30.718Z,2.00
2018-10-02T03:01:59.810Z,1.70
2018-10-02T03:04:28.939Z,2.27
2018-10-02T03:06:59.057Z,2.00
2018-10-02T03:09:40.403Z,2.23
2018-10-02T03:12:10.671Z,1.93
2018-10-02T03:14:39.788Z,2.40
2018-10-02T03:17:10.067Z,2.80
2018-10-02T03:19:39.149Z,2.73
2018-10-02T03:22:09.271Z,2.60
2018-10-02T03:24:38.525Z,2.60
2018-10-02T03:27:07.619Z,3.10
2018-10-02T03:29:36.839Z,3.33
2018-10-02T03:32:06.760Z,4.17
2018-10-02T03:34:35.944Z,2.13
2018-10-02T03:37:05.324Z,2.50
2018-10-02T03:39:35.194Z,2.27
2018-10-02T03:42:04.311Z,2.50
2018-10-02T03:44:33.569Z,2.13
2018-10-02T03:47:02.754Z,2.97
2018-10-02T03:49:32.738Z,2.80
2018-10-02T03:52:01.951Z,2.40
2018-10-02T03:54:31.484Z,3.33
2018-10-02T03:57:00.828Z,5.53
2018-10-02T03:59:29.981Z,3.80
2018-10-02T04:01:59.177Z,2.30
2018-10-02T04:04:29.186Z,2.80
2018-10-02T04:06:58.281Z,2.60
2018-10-02T04:09:27.455Z,3.90
2018-10-02T04:11:56.678Z,2.53
2018-10-02T04:14:25.661Z,2.33
2018-10-02T04:16:54.953Z,2.60
2018-10-02T04:19:24.300Z,2.70
2018-10-02T04:21:53.546Z,2.90
2018-10-02T04:24:22.628Z,2.90
2018-10-02T04:26:52.049Z,2.73
2018-10-02T04:29:22.286Z,2.40
2018-10-02T04:31:51.555Z,2.80
2018-10-02T04:34:20.788Z,2.90
2018-10-02T04:36:50.015Z,2.80
2018-10-02T04:39:19.842Z,3.30
2018-10-02T04:41:49.162Z,2.63
2018-10-02T04:44:18.425Z,2.77
2018-10-02T04:46:47.791Z,2.83
2018-10-02T04:49:20.029Z,2.77
2018-10-02T04:51:51.723Z,2.80
2018-10-02T04:54:22.071Z,2.57
2018-10-02T04:56:51.347Z,1.97
2018-10-02T04:59:20.471Z,3.00
2018-10-02T05:01:49.578Z,2.60
2018-10-02T05:04:18.669Z,2.13
2018-10-02T05:06:47.871Z,1.83
2018-10-02T05:09:17.014Z,2.80
2018-10-02T05:11:46.218Z,2.73
2018-10-02T05:14:15.648Z,2.73
2018-10-02T05:16:44.727Z,2.50
2018-10-02T05:19:13.927Z,2.93
2018-10-02T05:21:43.060Z,2.17
2018-10-02T05:24:12.510Z,2.57
2018-10-02T05:26:41.698Z,2.30
2018-10-02T05:29:11.237Z,2.63
2018-10-02T05:31:40.520Z,3.40
2018-10-02T05:34:09.744Z,4.30
2018-10-02T05:36:39.155Z,3.13
2018-10-02T05:39:09.406Z,2.90
2018-10-02T05:41:38.768Z,3.80
2018-10-02T05:44:08.167Z,2.70
2018-10-02T05:46:37.252Z,3.20
2018-10-02T05:49:06.427Z,2.17
2018-10-02T05:51:36.112Z,2.10
2018-10-02T05:54:05.232Z,2.30
2018-10-02T05:56:34.446Z,2.50
2018-10-02T05:59:03.663Z,2.17
2018-10-02T06:01:32.789Z,1.90
2018-10-02T06:04:01.935Z,2.43
2018-10-02T06:06:31.077Z,2.80
2018-10-02T06:09:00.590Z,3.00
2018-10-02T06:11:32.666Z,2.00
2018-10-02T06:14:01.767Z,2.43
2018-10-02T06:16:31.772Z,3.57
2018-10-02T06:19:01.028Z,2.53
2018-10-02T06:21:30.328Z,2.20
2018-10-02T06:23:59.635Z,2.30
2018-10-02T06:26:33.342Z,1.80
2018-10-02T06:29:02.492Z,2.50
2018-10-02T06:31:31.783Z,2.13
2018-10-02T06:34:01.031Z,2.63
2018-10-02T06:36:30.163Z,2.60
2018-10-02T06:38:59.296Z,2.50
2018-10-02T06:41:28.812Z,2.87
2018-10-02T06:43:58.076Z,2.70
2018-10-02T06:46:27.537Z,2.67
2018-10-02T06:48:56.856Z,3.10
2018-10-02T06:51:26.243Z,3.47
2018-10-02T06:53:55.834Z,2.50
2018-10-02T06:56:29.361Z,2.60
2018-10-02T06:58:58.716Z,3.43
2018-10-02T07:01:28.732Z,2.23
2018-10-02T07:03:58.080Z,1.60
2018-10-02T07:06:27.320Z,2.50
2018-10-02T07:08:56.576Z,2.47
2018-10-02T07:11:25.846Z,1.83
2018-10-02T07:13:55.112Z,2.13
2018-10-02T07:16:24.336Z,2.47
2018-10-02T07:18:54.308Z,2.50
2018-10-02T07:21:23.571Z,3.07
2018-10-02T07:23:52.912Z,2.33
2018-10-02T07:26:22.136Z,2.33
2018-10-02T07:28:51.281Z,1.77
2018-10-02T07:31:20.390Z,2.20
2018-10-02T07:33:50.374Z,2.73
2018-10-02T07:36:19.841Z,2.20
2018-10-02T07:38:49.097Z,2.17
2018-10-02T07:41:18.298Z,1.90
2018-10-02T07:43:47.521Z,2.27
2018-10-02T07:46:16.516Z,2.30
2018-10-02T07:48:46.483Z,2.20
2018-10-02T07:51:16.131Z,2.70
2018-10-02T07:53:45.453Z,1.73
2018-10-02T07:56:14.621Z,2.27
2018-10-02T07:58:43.843Z,2.20
2018-10-02T08:01:13.066Z,2.50
2018-10-02T08:03:42.259Z,2.03
2018-10-02T08:06:16.482Z,1.73
2018-10-02T08:08:45.644Z,2.50
2018-10-02T08:11:14.875Z,2.60
2018-10-02T08:13:43.993Z,2.33
2018-10-02T08:16:13.378Z,2.70
2018-10-02T08:18:42.656Z,2.27
2018-10-02T08:21:11.843Z,2.97
2018-10-02T08:23:41.123Z,2.40
2018-10-02T08:26:10.395Z,2.90
2018-10-02T08:28:39.535Z,2.90
2018-10-02T08:31:08.744Z,3.37
2018-10-02T08:33:38.001Z,2.80
2018-10-02T08:36:07.645Z,4.20
2018-10-02T08:38:36.820Z,3.17
2018-10-02T08:41:06.122Z,3.57
2018-10-02T08:43:35.674Z,3.30
2018-10-02T08:46:04.905Z,3.70
2018-10-02T08:48:34.106Z,3.27
2018-10-02T08:51:04.209Z,3.70
2018-10-02T08:53:33.418Z,4.20
2018-10-02T08:56:03.015Z,4.63
2018-10-02T08:58:32.292Z,4.50
2018-10-02T09:01:01.654Z,4.67
2018-10-02T09:03:30.794Z,4.63
2018-10-02T09:05:59.975Z,3.87
2018-10-02T09:08:29.176Z,3.90
2018-10-02T09:10:58.342Z,4.20
2018-10-02T09:13:27.610Z,3.77
2018-10-02T09:15:57.025Z,4.07
2018-10-02T09:18:26.313Z,5.87
2018-10-02T09:20:55.836Z,3.90
2018-10-02T09:23:24.986Z,3.93
2018-10-02T09:25:54.330Z,4.27
2018-10-02T09:28:23.718Z,4.20
2018-10-02T09:30:58.213Z,4.33
2018-10-02T09:33:32.816Z,4.60
2018-10-02T09:36:07.361Z,4.10
2018-10-02T09:38:41.973Z,4.67
2018-10-02T09:41:16.396Z,4.30
2018-10-02T09:43:49.110Z,5.03
2018-10-02T09:46:19.791Z,5.03
2018-10-02T09:48:49.106Z,4.80
2018-10-02T09:51:18.777Z,4.07
2018-10-02T09:53:48.040Z,5.53
2018-10-02T09:56:18.148Z,5.67
2018-10-02T09:58:47.465Z,4.53
2018-10-02T10:01:22.051Z,5.03
2018-10-02T10:03:51.133Z,4.93
2018-10-02T10:06:20.354Z,5.37
2018-10-02T10:08:49.761Z,4.53
2018-10-02T10:11:19.112Z,5.30
2018-10-02T10:13:48.421Z,4.73
2018-10-02T10:16:17.620Z,4.73
2018-10-02T10:18:47.054Z,4.70
2018-10-02T10:21:16.362Z,5.03
2018-10-02T10:23:46.018Z,4.60
2018-10-02T10:26:15.409Z,4.50
2018-10-02T10:28:44.828Z,4.60
2018-10-02T10:31:14.734Z,4.20
2018-10-02T10:33:44.156Z,4.47
2018-10-02T10:36:14.594Z,4.77
2018-10-02T10:38:43.883Z,4.90
2018-10-02T10:41:13.168Z,4.53
2018-10-02T10:43:42.445Z,4.73
2018-10-02T10:46:11.776Z,5.23
2018-10-02T10:48:41.062Z,4.10
2018-10-02T10:51:10.379Z,4.97
2018-10-02T10:53:39.678Z,4.93
2018-10-02T10:56:08.922Z,5.13
2018-10-02T10:58:38.346Z,5.13
2018-10-02T11:01:09.078Z,5.17
2018-10-02T11:03:38.169Z,5.23
2018-10-02T11:06:07.727Z,5.63
2018-10-02T11:08:37.670Z,5.90
2018-10-02T11:11:06.868Z,5.97
2018-10-02T11:13:36.119Z,6.50
2018-10-02T11:16:05.484Z,6.10
2018-10-02T11:18:34.664Z,5.77
2018-10-02T11:21:04.045Z,6.23
2018-10-02T11:23:33.476Z,5.70
2018-10-02T11:26:02.588Z,6.27
2018-10-02T11:28:31.853Z,6.10
2018-10-02T11:31:01.195Z,6.70
2018-10-02T11:33:30.353Z,6.00
2018-10-02T11:36:00.896Z,6.10
2018-10-02T11:38:30.184Z,5.90
2018-10-02T11:40:59.749Z,7.07
2018-10-02T11:43:30.089Z,6.30
2018-10-02T11:45:59.295Z,6.67
2018-10-02T11:48:28.801Z,7.30
2018-10-02T11:50:58.324Z,9.10
2018-10-02T11:53:29.512Z,7.17
2018-10-02T11:55:58.733Z,6.90
2018-10-02T11:58:27.836Z,6.23
2018-10-02T12:00:57.826Z,6.30
2018-10-02T12:03:27.327Z,5.00
2018-10-02T12:05:56.422Z,5.93
2018-10-02T12:08:25.736Z,5.50
2018-10-02T12:10:55.753Z,5.30
2018-10-02T12:13:25.016Z,5.37
2018-10-02T12:15:54.182Z,5.80
2018-10-02T12:18:23.352Z,4.20
2018-10-02T12:20:52.697Z,4.70
2018-10-02T12:23:23.097Z,5.50
2018-10-02T12:25:52.303Z,4.43
2018-10-02T12:28:21.625Z,5.83
2018-10-02T12:30:50.777Z,4.53
2018-10-02T12:33:19.898Z,4.67
2018-10-02T12:35:49.087Z,5.07
2018-10-02T12:38:18.362Z,4.60
2018-10-02T12:40:48.421Z,4.20
2018-10-02T12:43:17.561Z,4.70
2018-10-02T12:45:46.779Z,4.90
2018-10-02T12:48:16.366Z,4.90
2018-10-02T12:50:45.509Z,5.80
2018-10-02T12:53:15.268Z,5.40
2018-10-02T12:55:45.067Z,5.40
2018-10-02T12:58:14.261Z,5.40
2018-10-02T13:00:43.411Z,6.50
2018-10-02T13:03:12.669Z,6.97
2018-10-02T13:05:41.956Z,6.60
2018-10-02T13:08:11.184Z,6.00
2018-10-02T13:10:40.352Z,6.97
2018-10-02T13:13:09.577Z,6.33
2018-10-02T13:15:38.787Z,6.70
2018-10-02T13:18:08.168Z,6.80
2018-10-02T13:20:37.203Z,7.27
2018-10-02T13:23:07.407Z,7.10
2018-10-02T13:25:36.857Z,7.80
2018-10-02T13:28:09.190Z,7.97
2018-10-02T13:30:38.353Z,7.90
2018-10-02T13:33:07.741Z,8.00
2018-10-02T13:35:37.060Z,7.70
2018-10-02T13:38:06.392Z,8.83
2018-10-02T13:40:36.393Z,8.50
2018-10-02T13:43:05.643Z,9.80
2018-10-02T13:45:34.788Z,10.37
2018-10-02T13:48:03.974Z,10.37
2018-10-02T13:50:33.220Z,11.17
2018-10-02T13:53:02.447Z,11.30
2018-10-02T13:55:31.708Z,11.40
2018-10-02T13:58:00.787Z,12.27
2018-10-02T14:00:29.929Z,11.30
2018-10-02T14:02:59.138Z,12.30
2018-10-02T14:05:28.329Z,14.43
2018-10-02T14:07:57.451Z,13.40
2018-10-02T14:10:26.739Z,14.20
2018-10-02T14:12:55.881Z,14.70
2018-10-02T14:15:25.186Z,12.30
2018-10-02T14:17:54.295Z,10.90
2018-10-02T14:20:23.521Z,10.33
2018-10-02T14:22:53.468Z,10.97
2018-10-02T14:25:22.636Z,10.80
2018-10-02T14:27:51.883Z,8.87
2018-10-02T14:30:21.224Z,6.93
2018-10-02T14:32:50.485Z,6.07
2018-10-02T14:35:19.540Z,6.33
2018-10-02T14:37:48.985Z,7.90
2018-10-02T14:40:18.381Z,6.77
2018-10-02T14:42:47.598Z,6.77
2018-10-02T14:45:17.901Z,6.13
2018-10-02T14:47:47.231Z,4.80
2018-10-02T14:50:16.348Z,6.27
2018-10-02T14:52:45.621Z,5.93
2018-10-02T14:55:15.216Z,6.27
2018-10-02T14:57:44.338Z,6.40
2018-10-02T15:00:14.237Z,6.40
2018-10-02T15:02:45.168Z,5.83
2018-10-02T15:05:14.339Z,6.50
2018-10-02T15:07:43.552Z,5.17
2018-10-02T15:10:12.851Z,3.90
2018-10-02T15:12:42.028Z,4.00
2018-10-02T15:15:11.534Z,3.80
2018-10-02T15:17:40.645Z,2.60
2018-10-02T15:20:09.786Z,3.63
2018-10-02T15:22:39.103Z,4.13
2018-10-02T15:25:08.738Z,3.50
2018-10-02T15:27:39.082Z,3.13
2018-10-02T15:30:08.615Z,3.30
2018-10-02T15:32:37.968Z,2.53
2018-10-02T15:35:07.442Z,2.90
2018-10-02T15:37:36.670Z,2.90
2018-10-02T15:40:05.836Z,3.70
2018-10-02T15:42:35.260Z,3.73
2018-10-02T15:45:04.700Z,4.00
2018-10-02T15:47:34.202Z,5.47
2018-10-02T15:50:03.507Z,3.27
2018-10-02T15:52:32.747Z,2.60
2018-10-02T15:55:02.689Z,2.60
2018-10-02T15:57:31.871Z,3.60
2018-10-02T16:00:01.019Z,2.73
2018-10-02T16:02:30.232Z,3.17
2018-10-02T16:05:00.032Z,3.70
2018-10-02T16:07:29.333Z,3.33
2018-10-02T16:09:58.585Z,3.37
2018-10-02T16:12:28.137Z,3.83
2018-10-02T16:14:57.461Z,4.07
2018-10-02T16:17:26.911Z,2.97
2018-10-02T16:19:56.596Z,3.90
2018-10-02T16:22:25.916Z,4.10
2018-10-02T16:24:56.876Z,3.10
2018-10-02T16:27:26.001Z,3.43
2018-10-02T16:29:55.110Z,3.50
2018-10-02T16:32:24.466Z,3.37
2018-10-02T16:34:53.747Z,4.27
2018-10-02T16:37:22.898Z,3.53
2018-10-02T16:39:52.262Z,4.37
2018-10-02T16:42:21.513Z,2.90
2018-10-02T16:44:50.732Z,3.90
2018-10-02T16:47:20.591Z,3.13
2018-10-02T16:49:49.817Z,4.83
2018-10-02T16:52:19.298Z,3.50
2018-10-02T16:54:48.540Z,3.90
2018-10-02T16:57:17.980Z,4.10
2018-10-02T16:59:47.022Z,3.70
2018-10-02T17:02:17.049Z,4.27
2018-10-02T17:04:46.194Z,3.57
2018-10-02T17:07:15.416Z,3.73
2018-10-02T17:09:44.563Z,3.97
2018-10-02T17:12:15.011Z,3.87
2018-10-02T17:14:44.359Z,3.70
2018-10-02T17:17:13.780Z,2.90
2018-10-02T17:19:42.864Z,3.07
2018-10-02T17:22:12.088Z,3.00
2018-10-02T17:24:41.279Z,3.03
2018-10-02T17:27:10.672Z,3.70
2018-10-02T17:29:40.608Z,4.00
2018-10-02T17:32:09.917Z,2.70
2018-10-02T17:34:39.156Z,3.20
2018-10-02T17:37:08.295Z,3.47
2018-10-02T17:39:37.566Z,2.57
2018-10-02T17:42:06.961Z,3.40
2018-10-02T17:44:36.241Z,3.30
2018-10-02T17:47:05.394Z,2.70
2018-10-02T17:49:34.665Z,3.10
2018-10-02T17:52:03.861Z,3.20
2018-10-02T17:54:33.023Z,3.10
2018-10-02T17:57:03.356Z,3.10
2018-10-02T17:59:32.819Z,3.70
2018-10-02T18:02:02.153Z,2.63
2018-10-02T18:04:31.323Z,2.47
2018-10-02T18:07:00.742Z,3.13
2018-10-02T18:09:29.913Z,3.27
2018-10-02T18:11:59.259Z,3.00
2018-10-02T18:14:28.530Z,3.07
2018-10-02T18:16:57.636Z,3.20
2018-10-02T18:19:27.624Z,2.57
2018-10-02T18:21:57.753Z,3.20
2018-10-02T18:24:27.755Z,2.23
2018-10-02T18:26:56.859Z,2.90
2018-10-02T18:29:25.904Z,2.40
2018-10-02T18:31:55.154Z,2.60
2018-10-02T18:34:24.212Z,3.17
2018-10-02T18:36:56.294Z,3.13
2018-10-02T18:39:25.521Z,3.50
2018-10-02T18:41:54.607Z,2.67
2018-10-02T18:44:23.761Z,3.33
2018-10-02T18:46:53.021Z,2.50
2018-10-02T18:49:22.207Z,3.07
2018-10-02T18:51:51.401Z,3.00
2018-10-02T18:54:20.603Z,3.90
2018-10-02T18:56:49.787Z,3.23
2018-10-02T18:59:19.458Z,2.80
2018-10-02T19:01:49.577Z,3.40
2018-10-02T19:04:18.846Z,2.90
2018-10-02T19:06:48.002Z,2.70
2018-10-02T19:09:18.872Z,3.00
2018-10-02T19:11:53.327Z,3.37
2018-10-02T19:14:23.852Z,3.37
2018-10-02T19:16:53.088Z,2.90
2018-10-02T19:19:28.074Z,2.90
2018-10-02T19:21:57.259Z,2.87
2018-10-02T19:24:26.449Z,3.30
2018-10-02T19:26:55.627Z,2.47
2018-10-02T19:29:31.757Z,2.93
2018-10-02T19:32:18.684Z,3.53
2018-10-02T19:34:47.938Z,3.10
2018-10-02T19:37:23.377Z,2.80
2018-10-02T19:39:52.638Z,2.97
2018-10-02T19:42:21.846Z,2.90
2018-10-02T19:44:51.179Z,2.80
2018-10-02T19:47:21.131Z,3.00
2018-10-02T19:49:50.276Z,2.63
2018-10-02T19:52:19.340Z,2.23
2018-10-02T19:54:48.880Z,2.53
2018-10-02T19:57:21.734Z,2.33
2018-10-02T19:59:51.651Z,2.93
2018-10-02T20:02:20.796Z,3.70
2018-10-02T20:04:49.827Z,2.63
2018-10-02T20:07:19.042Z,2.97
2018-10-02T20:09:48.225Z,2.90
2018-10-02T20:12:17.319Z,3.70
2018-10-02T20:14:46.375Z,2.67
2018-10-02T20:17:16.468Z,2.60
2018-10-02T20:19:45.747Z,2.53
2018-10-02T20:22:16.012Z,3.27
2018-10-02T20:24:45.155Z,2.57
2018-10-02T20:27:14.617Z,3.07
2018-10-02T20:29:44.132Z,3.57
2018-10-02T20:32:13.302Z,2.50
2018-10-02T20:34:42.441Z,2.93
2018-10-02T20:37:11.673Z,5.30
2018-10-02T20:39:40.856Z,3.50
2018-10-02T20:42:09.997Z,2.70
2018-10-02T20:44:39.343Z,3.80
2018-10-02T20:47:08.433Z,3.23
2018-10-02T20:49:38.339Z,3.63
2018-10-02T20:52:08.197Z,3.30
2018-10-02T20:54:37.343Z,3.53
2018-10-02T20:57:06.532Z,3.27
2018-10-02T20:59:35.727Z,2.60
2018-10-02T21:02:04.868Z,2.53
2018-10-02T21:04:33.947Z,2.60
2018-10-02T21:07:03.102Z,3.07
2018-10-02T21:09:32.360Z,3.20
2018-10-02T21:12:01.615Z,3.47
2018-10-02T21:14:30.933Z,3.67
2018-10-02T21:17:03.031Z,4.37
2018-10-02T21:19:32.131Z,4.30
2018-10-02T21:22:01.909Z,3.70
2018-10-02T21:24:31.127Z,3.57
2018-10-02T21:27:00.310Z,2.70
2018-10-02T21:29:29.540Z,3.07
2018-10-02T21:31:58.779Z,2.47
2018-10-02T21:34:27.859Z,3.70
2018-10-02T21:36:57.035Z,3.50
2018-10-02T21:39:27.033Z,4.07
2018-10-02T21:41:56.164Z,3.07
2018-10-02T21:44:25.454Z,2.33
2018-10-02T21:46:54.578Z,2.80
2018-10-02T21:49:23.745Z,3.30
2018-10-02T21:51:53.106Z,3.20
2018-10-02T21:54:23.479Z,3.50
2018-10-02T21:56:53.188Z,3.03
2018-10-02T21:59:22.390Z,3.70
2018-10-02T22:01:51.553Z,2.80
2018-10-02T22:04:20.768Z,2.63
2018-10-02T22:06:50.065Z,2.70
2018-10-02T22:09:19.231Z,2.70
2018-10-02T22:14:29.657Z,3.60
2018-10-02T22:16:58.779Z,3.83
2018-10-02T22:19:28.108Z,3.60
2018-10-02T22:21:57.331Z,3.43
2018-10-02T22:24:26.568Z,3.77
2018-10-02T22:26:56.414Z,3.50
2018-10-02T22:29:25.535Z,3.00
2018-10-02T22:31:55.060Z,2.50
2018-10-02T22:34:24.172Z,3.50
2018-10-02T22:36:53.246Z,3.00
2018-10-02T22:39:22.507Z,3.17
2018-10-02T22:41:52.468Z,3.03
2018-10-02T22:44:21.557Z,2.17
2018-10-02T22:46:50.830Z,2.60
2018-10-02T22:49:20.713Z,3.03
2018-10-02T22:51:49.867Z,3.00
2018-10-02T22:54:19.099Z,3.10
2018-10-02T22:56:48.235Z,2.93
2018-10-02T22:59:17.427Z,2.90
2018-10-02T23:01:46.799Z,2.90
2018-10-02T23:04:15.876Z,2.80
2018-10-02T23:06:46.624Z,2.53
2018-10-02T23:09:15.824Z,2.30
2018-10-02T23:11:44.813Z,2.67
2018-10-02T23:14:13.909Z,3.73
2018-10-02T23:16:43.133Z,2.53
2018-10-02T23:19:12.325Z,2.63
2018-10-02T23:21:41.992Z,2.70
2018-10-02T23:24:11.412Z,3.23
2018-10-02T23:26:40.613Z,2.67
2018-10-02T23:29:09.676Z,2.00
2018-10-02T23:31:38.866Z,4.87
2018-10-02T23:34:08.113Z,3.17
2018-10-02T23:36:37.299Z,2.63
2018-10-02T23:39:07.823Z,2.50
2018-10-02T23:41:37.174Z,2.37
2018-10-02T23:44:06.448Z,2.13
2018-10-02T23:46:35.527Z,2.10
2018-10-02T23:49:04.761Z,3.30
2018-10-02T23:51:33.959Z,2.90
2018-10-02T23:54:03.067Z,2.20
2018-10-02T23:56:32.343Z,2.20
2018-10-02T23:59:01.520Z,2.07
